createdAt,value
2023-04-09T00:00:16.596Z,100168.83
2023-04-09T00:03:27.673Z,100169.41
2023-04-09T00:06:20.360Z,100167.40
2023-04-09T00:09:19.275Z,100165.08
2023-04-09T00:12:17.612Z,100168.13
2023-04-09T00:15:24.068Z,100162.40
2023-04-09T00:18:21.312Z,100164.02
2023-04-09T00:21:12.084Z,100163.90
2023-04-09T00:24:05.282Z,100158.29
2023-04-09T00:26:58.184Z,100157.19
2023-04-09T00:29:53.884Z,100159.05
2023-04-09T00:32:45.159Z,100158.15
2023-04-09T00:35:37.314Z,100159.38
2023-04-09T00:38:30.788Z,100157.31
2023-04-09T00:41:23.058Z,100160.55
2023-04-09T00:44:16.396Z,100156.09
2023-04-09T00:47:08.571Z,100152.80
2023-04-09T00:49:59.429Z,100150.46
2023-04-09T00:52:51.531Z,100145.52
2023-04-09T00:55:43.231Z,100145.42
2023-04-09T00:58:36.964Z,100140.77
2023-04-09T01:01:28.038Z,100138.99
2023-04-09T01:04:18.458Z,100139.48
2023-04-09T01:07:12.082Z,100137.54
2023-04-09T01:10:06.410Z,100138.13
2023-04-09T01:13:06.097Z,100134.79
2023-04-09T01:16:01.105Z,100138.10
2023-04-09T01:18:53.847Z,100137.31
2023-04-09T01:21:45.386Z,100137.91
2023-04-09T01:24:43.362Z,100140.41
2023-04-09T01:27:44.248Z,100135.82
2023-04-09T01:30:35.402Z,100136.98
2023-04-09T01:33:28.894Z,100133.81
2023-04-09T01:36:21.552Z,100134.94
2023-04-09T01:39:14.667Z,100130.86
2023-04-09T01:42:09.715Z,100132.59
2023-04-09T01:45:06.512Z,100132.23
2023-04-09T01:47:57.469Z,100129.46
2023-04-09T01:50:54.319Z,100129.45
2023-04-09T01:53:49.406Z,100127.55
2023-04-09T01:56:48.274Z,100124.52
2023-04-09T01:59:42.208Z,100124.52
2023-04-09T02:02:36.832Z,100123.87
2023-04-09T02:05:32.208Z,100119.42
2023-04-09T02:08:24.168Z,100119.36
2023-04-09T02:11:17.059Z,100121.27
2023-04-09T02:14:11.471Z,100117.10
2023-04-09T02:17:11.040Z,100120.67
2023-04-09T02:20:01.775Z,100116.56
2023-04-09T02:22:54.991Z,100114.10
2023-04-09T02:25:46.217Z,100111.27
2023-04-09T02:28:37.951Z,100107.86
2023-04-09T02:31:33.139Z,100107.20
2023-04-09T02:34:25.907Z,100106.77
2023-04-09T02:37:19.432Z,100105.95
2023-04-09T02:40:15.405Z,100107.48
2023-04-09T02:43:08.560Z,100105.55
2023-04-09T02:45:59.314Z,100108.28
2023-04-09T02:48:52.052Z,100106.40
2023-04-09T02:51:47.894Z,100105.83
2023-04-09T02:54:38.559Z,100106.26
2023-04-09T02:57:30.577Z,100103.05
2023-04-09T03:00:21.309Z,100100.34
2023-04-09T03:03:13.593Z,100105.13
2023-04-09T03:06:05.866Z,100103.31
2023-04-09T03:08:56.798Z,100105.64
2023-04-09T03:11:48.898Z,100107.20
2023-04-09T03:14:40.133Z,100106.53
2023-04-09T03:17:32.216Z,100108.92
2023-04-09T03:20:25.223Z,100108.11
2023-04-09T03:23:16.236Z,100104.80
2023-04-09T03:26:10.250Z,100105.45
2023-04-09T03:29:11.796Z,100105.05
2023-04-09T03:32:06.524Z,100105.76
2023-04-09T03:34:57.933Z,100103.23
2023-04-09T03:37:55.858Z,100103.25
2023-04-09T03:40:46.799Z,100102.89
2023-04-09T03:43:42.339Z,100105.90
2023-04-09T03:46:38.727Z,100103.20
2023-04-09T03:49:32.046Z,100103.13
2023-04-09T03:52:29.694Z,100105.34
2023-04-09T03:55:28.301Z,100100.20
2023-04-09T03:58:20.152Z,100107.16
2023-04-09T04:01:14.551Z,100107.27
2023-04-09T04:04:16.728Z,100108.06
2023-04-09T04:07:19.088Z,100106.31
2023-04-09T04:10:27.436Z,100104.02
2023-04-09T04:13:18.598Z,100107.03
2023-04-09T04:16:15.474Z,100104.31
2023-04-09T04:19:07.897Z,100101.23
2023-04-09T04:22:03.480Z,100100.11
2023-04-09T04:24:57.427Z,100098.04
2023-04-09T04:27:49.167Z,100091.55
2023-04-09T04:30:43.887Z,100096.02
2023-04-09T04:33:39.236Z,100101.10
2023-04-09T04:36:34.373Z,100098.98
2023-04-09T04:39:26.715Z,100098.14
2023-04-09T04:42:25.930Z,100101.08
2023-04-09T04:45:17.838Z,100102.66
2023-04-09T04:48:13.344Z,100100.40
2023-04-09T04:51:04.360Z,100101.77
2023-04-09T04:54:01.131Z,100101.89
2023-04-09T04:56:54.584Z,100101.14
2023-04-09T05:00:08.926Z,100102.87
2023-04-09T05:03:00.424Z,100104.54
2023-04-09T05:06:27.087Z,100106.54
2023-04-09T05:09:22.484Z,100114.33
2023-04-09T05:12:31.430Z,100115.02
2023-04-09T05:15:23.194Z,100112.17
2023-04-09T05:18:15.355Z,100110.27
2023-04-09T05:21:06.623Z,100112.51
2023-04-09T05:23:59.648Z,100115.77
2023-04-09T05:26:58.092Z,100115.08
2023-04-09T05:29:52.665Z,100112.18
2023-04-09T05:32:43.555Z,100115.94
2023-04-09T05:35:40.273Z,100116.48
2023-04-09T05:38:32.807Z,100116.67
2023-04-09T05:41:23.741Z,100115.23
2023-04-09T05:44:30.061Z,100114.17
2023-04-09T05:47:28.950Z,100113.48
2023-04-09T05:50:47.533Z,100116.16
2023-04-09T05:53:45.897Z,100114.83
2023-04-09T05:56:38.415Z,100115.74
2023-04-09T05:59:31.225Z,100114.36
2023-04-09T06:02:27.257Z,100116.40
2023-04-09T06:05:18.193Z,100120.02
2023-04-09T06:08:14.167Z,100121.98
2023-04-09T06:11:07.930Z,100118.68
2023-04-09T06:13:58.639Z,100125.37
2023-04-09T06:16:49.818Z,100119.69
2023-04-09T06:19:40.272Z,100113.77
2023-04-09T06:22:32.527Z,100112.86
2023-04-09T06:25:23.520Z,100115.84
2023-04-09T06:28:18.236Z,100121.48
2023-04-09T06:31:12.433Z,100120.71
2023-04-09T06:34:06.528Z,100122.73
2023-04-09T06:36:57.505Z,100124.50
2023-04-09T06:40:00.504Z,100131.79
2023-04-09T06:42:52.116Z,100134.44
2023-04-09T06:45:53.853Z,100139.25
2023-04-09T06:48:44.825Z,100142.96
2023-04-09T06:51:37.424Z,100148.26
2023-04-09T06:54:28.437Z,100150.61
2023-04-09T06:57:25.191Z,100153.44
2023-04-09T07:00:20.419Z,100159.35
2023-04-09T07:03:13.925Z,100161.41
2023-04-09T07:06:04.945Z,100162.71
2023-04-09T07:08:55.904Z,100157.48
2023-04-09T07:11:47.740Z,100159.50
2023-04-09T07:14:38.941Z,100156.89
2023-04-09T07:17:32.151Z,100152.38
2023-04-09T07:20:25.392Z,100156.08
2023-04-09T07:23:18.680Z,100156.41
2023-04-09T07:26:10.733Z,100160.29
2023-04-09T07:29:03.732Z,100152.75
2023-04-09T07:31:55.167Z,100156.23
2023-04-09T07:34:48.652Z,100151.11
2023-04-09T07:37:41.899Z,100149.05
2023-04-09T07:40:34.011Z,100149.45
2023-04-09T07:43:26.263Z,100150.48
2023-04-09T07:46:24.579Z,100151.20
2023-04-09T07:49:17.578Z,100150.80
2023-04-09T07:52:08.786Z,100148.60
2023-04-09T07:55:05.059Z,100150.77
2023-04-09T07:58:00.149Z,100155.84
2023-04-09T08:00:53.059Z,100156.97
2023-04-09T08:03:44.551Z,100153.94
2023-04-09T08:06:36.163Z,100148.13
2023-04-09T08:09:27.063Z,100146.61
2023-04-09T08:12:17.566Z,100150.15
2023-04-09T08:15:10.162Z,100145.21
2023-04-09T08:18:03.139Z,100144.45
2023-04-09T08:20:53.827Z,100143.80
2023-04-09T08:23:44.506Z,100143.88
2023-04-09T08:26:35.280Z,100142.54
2023-04-09T08:29:25.903Z,100144.58
2023-04-09T08:32:16.557Z,100138.23
2023-04-09T08:35:09.163Z,100140.02
2023-04-09T08:37:59.823Z,100139.70
2023-04-09T08:40:50.319Z,100140.70
2023-04-09T08:43:56.229Z,100141.57
2023-04-09T08:46:48.802Z,100142.65
2023-04-09T08:49:39.534Z,100145.02
2023-04-09T08:52:35.589Z,100141.83
2023-04-09T08:55:26.177Z,100138.39
2023-04-09T08:58:17.157Z,100135.94
2023-04-09T09:01:08.040Z,100138.16
2023-04-09T09:04:00.723Z,100143.53
2023-04-09T09:06:51.211Z,100139.81
2023-04-09T09:09:54.464Z,100136.27
2023-04-09T09:12:44.986Z,100136.25
2023-04-09T09:15:35.721Z,100137.14
2023-04-09T09:18:40.497Z,100138.08
2023-04-09T09:21:31.748Z,100144.91
2023-04-09T09:24:22.219Z,100150.08
2023-04-09T09:27:12.991Z,100152.34
2023-04-09T09:30:03.720Z,100153.46
2023-04-09T09:32:55.675Z,100153.41
2023-04-09T09:35:54.149Z,100154.87
2023-04-09T09:38:56.384Z,100156.09
2023-04-09T09:41:47.387Z,100153.95
2023-04-09T09:44:38.357Z,100156.50
2023-04-09T09:47:29.548Z,100156.91
2023-04-09T09:50:20.130Z,100157.40
2023-04-09T09:53:12.010Z,100155.95
2023-04-09T09:56:03.187Z,100153.35
2023-04-09T09:58:56.119Z,100152.21
2023-04-09T10:01:47.306Z,100151.36
2023-04-09T10:04:38.275Z,100148.42
2023-04-09T10:07:28.735Z,100150.31
2023-04-09T10:10:19.643Z,100148.79
2023-04-09T10:13:11.064Z,100149.95
2023-04-09T10:16:01.950Z,100151.64
2023-04-09T10:18:52.656Z,100148.89
2023-04-09T10:21:47.693Z,100145.99
2023-04-09T10:24:38.699Z,100145.40
2023-04-09T10:27:29.207Z,100146.44
2023-04-09T10:30:36.711Z,100145.77
2023-04-09T10:33:29.009Z,100142.92
2023-04-09T10:36:22.423Z,100146.02
2023-04-09T10:39:15.807Z,100149.67
2023-04-09T10:42:12.775Z,100145.64
2023-04-09T10:45:11.239Z,100144.65
2023-04-09T10:48:03.998Z,100146.35
2023-04-09T10:50:54.532Z,100144.67
2023-04-09T10:53:45.044Z,100145.14
2023-04-09T10:56:35.670Z,100143.85
2023-04-09T10:59:27.074Z,100143.70
2023-04-09T11:03:01.742Z,100141.92
2023-04-09T11:05:55.140Z,100147.21
2023-04-09T11:08:48.349Z,100148.93
2023-04-09T11:11:38.912Z,100145.91
2023-04-09T11:14:29.175Z,100146.96
2023-04-09T11:17:19.840Z,100146.07
2023-04-09T11:20:11.323Z,100147.11
2023-04-09T11:23:01.788Z,100144.82
2023-04-09T11:25:52.506Z,100146.48
2023-04-09T11:28:45.366Z,100148.54
2023-04-09T11:31:35.951Z,100147.85
2023-04-09T11:34:29.770Z,100145.55
2023-04-09T11:37:20.090Z,100150.33
2023-04-09T11:40:17.731Z,100148.88
2023-04-09T11:43:10.927Z,100148.09
2023-04-09T11:46:01.766Z,100148.08
2023-04-09T11:48:52.453Z,100147.58
2023-04-09T11:51:43.284Z,100146.38
2023-04-09T11:54:35.513Z,100144.70
2023-04-09T11:57:26.532Z,100148.17
2023-04-09T12:00:18.036Z,100151.38
2023-04-09T12:03:09.132Z,100145.55
2023-04-09T12:06:00.008Z,100144.89
2023-04-09T12:08:53.771Z,100148.73
2023-04-09T12:11:46.381Z,100152.69
2023-04-09T12:14:36.977Z,100147.75
2023-04-09T12:17:27.427Z,100152.38
2023-04-09T12:20:32.924Z,100153.38
2023-04-09T12:23:23.434Z,100153.60
2023-04-09T12:26:14.759Z,100153.99
2023-04-09T12:29:05.112Z,100152.66
2023-04-09T12:31:56.192Z,100152.83
2023-04-09T12:34:47.563Z,100152.45
2023-04-09T12:37:38.071Z,100153.48
2023-04-09T12:40:29.164Z,100155.27
2023-04-09T12:43:19.981Z,100150.26
2023-04-09T12:46:10.569Z,100148.91
2023-04-09T12:49:01.185Z,100149.91
2023-04-09T12:51:52.242Z,100148.30
2023-04-09T12:54:44.541Z,100147.08
2023-04-09T12:57:35.037Z,100147.79
2023-04-09T13:00:25.753Z,100147.56
2023-04-09T13:03:17.324Z,100145.66
2023-04-09T13:06:09.342Z,100145.83
2023-04-09T13:09:00.468Z,100150.27
2023-04-09T13:11:51.711Z,100147.21
2023-04-09T13:14:44.134Z,100146.58
2023-04-09T13:17:34.846Z,100146.94
2023-04-09T13:20:25.552Z,100143.52
2023-04-09T13:23:16.071Z,100145.05
2023-04-09T13:26:07.098Z,100143.96
2023-04-09T13:28:57.646Z,100141.77
2023-04-09T13:31:48.195Z,100141.02
2023-04-09T13:34:38.954Z,100143.01
2023-04-09T13:37:29.778Z,100147.98
2023-04-09T13:40:20.700Z,100146.69
2023-04-09T13:43:11.263Z,100150.18
2023-04-09T13:46:01.911Z,100154.28
2023-04-09T13:48:52.972Z,100156.28
2023-04-09T13:51:43.884Z,100156.29
2023-04-09T13:54:34.633Z,100157.08
2023-04-09T13:57:25.196Z,100155.52
2023-04-09T14:00:16.996Z,100153.58
2023-04-09T14:03:08.042Z,100152.66
2023-04-09T14:05:58.526Z,100153.44
2023-04-09T14:08:49.692Z,100149.05
2023-04-09T14:11:40.228Z,100148.70
2023-04-09T14:14:30.797Z,100145.05
2023-04-09T14:17:21.731Z,100144.36
2023-04-09T14:20:13.203Z,100138.94
2023-04-09T14:23:03.794Z,100139.43
2023-04-09T14:25:54.597Z,100138.04
2023-04-09T14:28:44.975Z,100131.65
2023-04-09T14:31:35.438Z,100130.71
2023-04-09T14:34:25.829Z,100133.63
2023-04-09T14:37:16.488Z,100127.60
2023-04-09T14:40:08.379Z,100123.92
2023-04-09T14:42:58.792Z,100120.59
2023-04-09T14:45:49.174Z,100120.16
2023-04-09T14:48:40.596Z,100118.02
2023-04-09T14:51:31.696Z,100111.87
2023-04-09T14:54:22.141Z,100108.33
2023-04-09T14:57:12.858Z,100108.23
2023-04-09T15:00:06.078Z,100108.91
2023-04-09T15:02:56.939Z,100103.27
2023-04-09T15:05:48.130Z,100111.27
2023-04-09T15:08:39.082Z,100113.91
2023-04-09T15:11:29.960Z,100112.90
2023-04-09T15:14:21.015Z,100116.33
2023-04-09T15:17:11.420Z,100119.65
2023-04-09T15:20:01.900Z,100123.77
2023-04-09T15:22:52.538Z,100123.95
2023-04-09T15:25:42.995Z,100125.68
2023-04-09T15:28:33.497Z,100130.70
2023-04-09T15:31:23.933Z,100122.15
2023-04-09T15:34:15.243Z,100126.52
2023-04-09T15:37:05.875Z,100121.02
2023-04-09T15:39:56.647Z,100126.82
2023-04-09T15:42:47.462Z,100125.35
2023-04-09T15:45:38.200Z,100128.00
2023-04-09T15:48:28.692Z,100127.77
2023-04-09T15:51:19.182Z,100132.41
2023-04-09T15:54:09.657Z,100131.30
2023-04-09T15:57:00.190Z,100130.90
2023-04-09T15:59:52.043Z,100135.89
2023-04-09T16:02:42.832Z,100135.84
2023-04-09T16:05:33.312Z,100135.34
2023-04-09T16:08:23.919Z,100137.19
2023-04-09T16:11:15.072Z,100136.69
2023-04-09T16:14:05.883Z,100136.70
2023-04-09T16:16:56.349Z,100138.48
2023-04-09T16:19:46.888Z,100138.26
2023-04-09T16:22:37.479Z,100136.26
2023-04-09T16:25:28.106Z,100129.69
2023-04-09T16:28:19.477Z,100131.88
2023-04-09T16:31:10.141Z,100126.35
2023-04-09T16:34:00.722Z,100127.50
2023-04-09T16:36:51.753Z,100127.84
2023-04-09T16:39:42.361Z,100127.95
2023-04-09T16:42:33.256Z,100130.21
2023-04-09T16:45:23.950Z,100135.14
2023-04-09T16:48:14.626Z,100135.86
2023-04-09T16:51:05.039Z,100138.50
2023-04-09T16:53:55.838Z,100139.77
2023-04-09T16:56:46.505Z,100142.30
2023-04-09T16:59:36.761Z,100147.75
2023-04-09T17:02:27.786Z,100148.28
2023-04-09T17:05:18.581Z,100152.14
2023-04-09T17:08:09.315Z,100148.95
2023-04-09T17:11:02.998Z,100151.88
2023-04-09T17:13:54.445Z,100153.17
2023-04-09T17:16:45.829Z,100153.23
2023-04-09T17:19:36.828Z,100158.99
2023-04-09T17:22:27.276Z,100156.60
2023-04-09T17:25:18.247Z,100161.31
2023-04-09T17:28:09.663Z,100160.59
2023-04-09T17:31:00.186Z,100164.70
2023-04-09T17:33:51.017Z,100166.72
2023-04-09T17:36:42.586Z,100170.04
2023-04-09T17:39:33.307Z,100174.02
2023-04-09T17:42:24.626Z,100178.56
2023-04-09T17:45:16.166Z,100185.23
2023-04-09T17:48:07.026Z,100187.96
2023-04-09T17:50:58.232Z,100188.02
2023-04-09T17:53:48.815Z,100191.35
2023-04-09T17:56:39.167Z,100197.48
2023-04-09T17:59:29.968Z,100198.95
2023-04-09T18:02:21.724Z,100197.98
2023-04-09T18:05:13.710Z,100202.60
2023-04-09T18:08:04.578Z,100203.57
2023-04-09T18:11:11.528Z,100204.75
2023-04-09T18:14:07.997Z,100201.48
2023-04-09T18:16:58.311Z,100207.58
2023-04-09T18:19:49.259Z,100208.46
2023-04-09T18:22:40.040Z,100208.73
2023-04-09T18:25:30.771Z,100210.35
2023-04-09T18:28:21.452Z,100213.69
2023-04-09T18:31:13.427Z,100220.02
2023-04-09T18:34:03.835Z,100218.48
2023-04-09T18:36:54.654Z,100221.66
2023-04-09T18:39:45.187Z,100225.35
2023-04-09T18:42:36.033Z,100228.12
2023-04-09T18:45:26.722Z,100228.16
2023-04-09T18:48:17.215Z,100232.60
2023-04-09T18:51:08.499Z,100235.70
2023-04-09T18:54:00.673Z,100237.77
2023-04-09T18:56:51.386Z,100239.81
2023-04-09T18:59:42.278Z,100237.96
2023-04-09T19:02:33.376Z,100235.18
2023-04-09T19:05:24.186Z,100239.84
2023-04-09T19:08:14.995Z,100235.79
2023-04-09T19:11:06.323Z,100236.91
2023-04-09T19:13:57.236Z,100236.08
2023-04-09T19:16:47.968Z,100240.00
2023-04-09T19:19:38.398Z,100238.94
2023-04-09T19:22:29.971Z,100240.33
2023-04-09T19:25:20.360Z,100239.05
2023-04-09T19:28:11.675Z,100242.82
2023-04-09T19:31:03.616Z,100244.73
2023-04-09T19:33:54.530Z,100245.61
2023-04-09T19:36:44.953Z,100247.80
2023-04-09T19:39:35.799Z,100249.57
2023-04-09T19:42:28.647Z,100248.34
2023-04-09T19:45:19.880Z,100249.98
2023-04-09T19:48:10.843Z,100252.95
2023-04-09T19:51:02.110Z,100256.31
2023-04-09T19:53:52.932Z,100250.05
2023-04-09T19:56:43.479Z,100245.02
2023-04-09T19:59:37.459Z,100247.06
2023-04-09T20:02:28.300Z,100249.93
2023-04-09T20:05:21.042Z,100249.27
2023-04-09T20:08:15.616Z,100251.60
2023-04-09T20:11:06.964Z,100255.59
2023-04-09T20:13:58.563Z,100251.27
2023-04-09T20:16:49.302Z,100251.96
2023-04-09T20:19:43.308Z,100258.65
2023-04-09T20:22:37.034Z,100259.82
2023-04-09T20:25:34.973Z,100258.04
2023-04-09T20:28:26.113Z,100257.70
2023-04-09T20:31:17.406Z,100257.21
2023-04-09T20:34:09.478Z,100254.02
2023-04-09T20:37:00.643Z,100257.42
2023-04-09T20:39:51.600Z,100261.08
2023-04-09T20:42:42.846Z,100262.62
2023-04-09T20:45:35.259Z,100266.11
2023-04-09T20:48:26.514Z,100260.12
2023-04-09T20:51:18.194Z,100261.38
2023-04-09T20:54:09.449Z,100261.86
2023-04-09T20:57:01.820Z,100260.68
2023-04-09T20:59:53.999Z,100261.59
2023-04-09T21:02:45.092Z,100256.95
2023-04-09T21:05:36.865Z,100257.42
2023-04-09T21:08:27.647Z,100257.69
2023-04-09T21:11:18.033Z,100252.23
2023-04-09T21:14:10.950Z,100248.98
2023-04-09T21:17:01.446Z,100250.19
2023-04-09T21:19:53.281Z,100250.36
2023-04-09T21:22:43.814Z,100255.19
2023-04-09T21:25:37.003Z,100247.80
2023-04-09T21:28:28.477Z,100245.31
2023-04-09T21:31:18.821Z,100245.25
2023-04-09T21:34:09.287Z,100244.35
2023-04-09T21:36:59.834Z,100247.67
2023-04-09T21:39:50.420Z,100248.19
2023-04-09T21:42:41.136Z,100250.33
2023-04-09T21:45:32.190Z,100246.64
2023-04-09T21:48:22.748Z,100247.29
2023-04-09T21:51:13.597Z,100246.29
2023-04-09T21:54:07.718Z,100242.38
2023-04-09T21:56:58.328Z,100242.66
2023-04-09T21:59:48.760Z,100241.01
2023-04-09T22:02:40.273Z,100236.78
2023-04-09T22:05:31.201Z,100239.07
2023-04-09T22:08:21.611Z,100241.48
2023-04-09T22:11:12.198Z,100240.75
2023-04-09T22:14:02.584Z,100239.92
2023-04-09T22:16:54.150Z,100240.84
2023-04-09T22:19:44.674Z,100247.27
2023-04-09T22:22:35.176Z,100243.20
2023-04-09T22:25:26.084Z,100245.35
2023-04-09T22:28:16.813Z,100244.29
2023-04-09T22:31:07.887Z,100244.06
2023-04-09T22:34:10.079Z,100244.95
2023-04-09T22:37:07.933Z,100249.67
2023-04-09T22:39:58.843Z,100245.02
2023-04-09T22:42:50.068Z,100244.81
2023-04-09T22:45:40.759Z,100242.59
2023-04-09T22:48:31.371Z,100241.98
2023-04-09T22:51:23.674Z,100241.70
2023-04-09T22:54:14.246Z,100242.77
2023-04-09T22:57:04.752Z,100246.11
2023-04-09T22:59:55.446Z,100241.52
2023-04-09T23:02:47.499Z,100241.90
2023-04-09T23:05:38.251Z,100239.66
2023-04-09T23:08:28.702Z,100245.52
2023-04-09T23:11:19.168Z,100246.07
2023-04-09T23:14:09.502Z,100248.20
2023-04-09T23:16:59.993Z,100252.20
2023-04-09T23:19:50.306Z,100250.52
2023-04-09T23:22:40.892Z,100244.09
2023-04-09T23:25:31.478Z,100241.02
2023-04-09T23:28:22.211Z,100238.68
2023-04-09T23:31:12.792Z,100239.02
2023-04-09T23:34:03.813Z,100237.89
2023-04-09T23:36:54.324Z,100232.39
2023-04-09T23:39:44.784Z,100231.64
2023-04-09T23:42:35.247Z,100228.02
2023-04-09T23:45:25.666Z,100227.75
2023-04-09T23:48:16.274Z,100225.88
2023-04-09T23:51:07.378Z,100225.83
2023-04-09T23:53:58.022Z,100225.44
2023-04-09T23:56:48.647Z,100223.35
2023-04-09T23:59:39.475Z,100216.66
